Time;durP1;ratioP1;P1;durP2;ratioP2;P2;SDS_P1;SDS_P2;PMS_P1;PMS_P2;Temp;Humidity;BMP_temperature;BMP_pressure;BME280_temperature;BME280_humidity;BME280_pressure;Samples;Min_cycle;Max_cycle;Signal;HPM_P1;HPM_P2
2023/10/15 00:00:27;;;;;;;5.47;0.90;;;;;;;7.99;77.77;100789.69;5038026;28;20315;-70
2023/10/15 00:02:55;;;;;;;4.63;1.10;;;;;;;7.98;77.82;100790.75;5038049;28;20242;-69
2023/10/15 00:05:23;;;;;;;2.10;1.17;;;;;;;7.96;77.91;100789.50;5038139;28;20211;-70
2023/10/15 00:07:52;;;;;;;5.17;1.30;;;;;;;7.94;77.71;100787.19;5038130;28;20226;-69
2023/10/15 00:10:20;;;;;;;2.43;0.93;;;;;;;7.94;77.06;100789.84;5042599;28;20199;-69
2023/10/15 00:12:48;;;;;;;4.57;1.00;;;;;;;7.93;77.77;100785.63;5038978;28;20236;-70
2023/10/15 00:15:18;;;;;;;1.17;0.90;;;;;;;7.92;77.42;100785.94;5035384;28;20203;-70
2023/10/15 00:17:46;;;;;;;7.17;1.33;;;;;;;7.89;77.59;100784.69;5037947;28;20214;-70
2023/10/15 00:20:16;;;;;;;2.60;1.20;;;;;;;7.89;77.49;100787.34;5039088;28;20261;-69
2023/10/15 00:22:43;;;;;;;7.07;1.10;;;;;;;7.87;78.32;100778.19;5037432;28;20343;-70
2023/10/15 00:25:12;;;;;;;5.00;1.10;;;;;;;7.87;77.57;100786.09;5038663;28;20212;-69
2023/10/15 00:27:39;;;;;;;3.63;0.90;;;;;;;7.85;78.11;100780.34;5037844;28;20608;-71
2023/10/15 00:30:12;;;;;;;6.10;1.10;;;;;;;7.82;78.86;100773.06;5039868;28;20212;-70
2023/10/15 00:32:42;;;;;;;3.10;1.20;;;;;;;7.82;77.75;100773.06;5040325;28;20377;-70
2023/10/15 00:35:14;;;;;;;5.07;0.83;;;;;;;7.83;78.31;100777.25;5034875;28;20195;-70
2023/10/15 00:37:51;;;;;;;4.40;1.10;;;;;;;7.82;79.01;100779.09;5037131;28;20362;-70
2023/10/15 00:40:20;;;;;;;2.53;0.90;;;;;;;7.80;78.56;100778.63;5037955;28;20207;-70
2023/10/15 00:42:46;;;;;;;4.27;1.30;;;;;;;7.79;78.70;100773.66;5037548;28;20258;-69
2023/10/15 00:45:14;;;;;;;4.00;1.43;;;;;;;7.75;78.17;100776.13;5036154;28;20199;-69
2023/10/15 00:47:41;;;;;;;3.60;1.20;;;;;;;7.74;77.92;100779.03;5038629;28;20203;-70
2023/10/15 00:50:09;;;;;;;2.97;1.00;;;;;;;7.70;78.12;100773.63;5039606;28;20211;-70
2023/10/15 00:52:42;;;;;;;5.87;1.40;;;;;;;7.69;79.19;100782.59;5052381;28;20340;-70
2023/10/15 00:55:16;;;;;;;5.93;1.30;;;;;;;7.66;79.53;100774.53;5036690;28;20199;-70
2023/10/15 00:57:45;;;;;;;5.93;1.03;;;;;;;7.62;78.56;100781.47;5038865;28;20701;-70
2023/10/15 01:00:37;;;;;;;6.77;1.73;;;;;;;7.59;79.23;100782.84;5054742;28;20631;-69
2023/10/15 01:03:03;;;;;;;5.00;1.27;;;;;;;7.59;79.15;100784.66;5039748;28;21255;-70
2023/10/15 01:05:34;;;;;;;2.87;1.00;;;;;;;7.56;79.57;100774.78;5052577;28;20430;-69
2023/10/15 01:08:04;;;;;;;6.37;1.43;;;;;;;7.51;79.25;100786.16;5037367;28;20302;-70
2023/10/15 01:10:36;;;;;;;4.33;1.30;;;;;;;7.45;79.13;100784.75;5037216;28;20290;-70
2023/10/15 01:13:11;;;;;;;4.60;1.17;;;;;;;7.45;78.53;100783.97;5034260;28;20273;-70
2023/10/15 01:15:42;;;;;;;7.97;0.87;;;;;;;7.44;79.63;100787.66;5050683;28;20212;-69
2023/10/15 01:18:10;;;;;;;4.00;1.00;;;;;;;7.39;78.67;100780.69;5037930;28;20326;-70
2023/10/15 01:20:40;;;;;;;4.53;1.10;;;;;;;7.38;79.70;100781.78;5037605;28;20211;-69
2023/10/15 01:23:08;;;;;;;3.70;1.17;;;;;;;7.35;79.45;100782.34;5051753;28;20258;-69
2023/10/15 01:25:45;;;;;;;6.60;1.67;;;;;;;7.31;79.26;100783.25;5035204;28;20688;-69
2023/10/15 01:28:13;;;;;;;3.70;1.10;;;;;;;7.30;79.43;100790.34;5049802;28;20203;-69
2023/10/15 01:30:41;;;;;;;4.60;1.20;;;;;;;7.27;79.96;100788.34;5035517;28;20689;-70
2023/10/15 01:33:10;;;;;;;9.57;1.30;;;;;;;7.24;79.66;100786.28;5028263;28;20231;-69
2023/10/15 01:35:38;;;;;;;6.33;1.33;;;;;;;7.23;79.90;100794.47;5034404;28;20712;-69
2023/10/15 01:38:10;;;;;;;3.57;1.20;;;;;;;7.19;80.65;100788.28;5035985;28;20751;-70
2023/10/15 01:40:40;;;;;;;8.17;1.27;;;;;;;7.18;80.10;100789.31;5034379;28;20673;-70
2023/10/15 01:43:12;;;;;;;5.27;1.13;;;;;;;7.17;81.06;100785.94;5050508;28;20676;-69
2023/10/15 01:45:40;;;;;;;6.10;1.50;;;;;;;7.13;80.48;100786.81;5051144;28;20215;-69
2023/10/15 01:48:16;;;;;;;6.60;1.30;;;;;;;7.10;80.80;100779.53;5050585;28;20685;-69
2023/10/15 01:50:44;;;;;;;3.73;1.00;;;;;;;7.08;80.87;100787.72;5035949;28;20203;-69
2023/10/15 01:53:11;;;;;;;1.83;1.23;;;;;;;7.04;80.38;100789.38;5036370;28;20259;-69
2023/10/15 01:55:52;;;;;;;8.37;1.30;;;;;;;7.04;80.03;100791.25;5035485;28;20211;-69
2023/10/15 01:58:19;;;;;;;4.93;1.23;;;;;;;7.03;79.90;100784.41;5037107;28;20231;-69
2023/10/15 02:00:48;;;;;;;3.33;1.40;;;;;;;7.03;80.24;100787.81;5032930;28;20207;-69
2023/10/15 02:03:17;;;;;;;4.53;1.50;;;;;;;7.02;80.50;100786.28;5048956;28;20377;-68
2023/10/15 02:05:44;;;;;;;8.97;1.23;;;;;;;7.03;80.07;100781.78;5031534;28;20356;-69
2023/10/15 02:08:13;;;;;;;5.67;1.20;;;;;;;7.03;79.51;100779.16;5033493;28;20291;-72
2023/10/15 02:10:46;;;;;;;9.27;1.37;;;;;;;7.04;79.95;100772.88;5051145;28;20203;-71
2023/10/15 02:13:12;;;;;;;5.23;1.20;;;;;;;7.02;80.06;100767.13;5033344;28;20713;-71
2023/10/15 02:15:40;;;;;;;7.37;1.50;;;;;;;7.02;80.38;100772.38;5035781;28;20377;-71
2023/10/15 02:18:08;;;;;;;5.17;1.47;;;;;;;7.00;79.85;100762.16;5036075;28;20227;-71
2023/10/15 02:20:44;;;;;;;5.93;1.07;;;;;;;7.01;79.98;100766.34;5031968;28;20250;-71
2023/10/15 02:23:11;;;;;;;10.80;1.53;;;;;;;6.99;80.30;100765.84;5035186;28;20313;-72
2023/10/15 02:25:45;;;;;;;5.20;1.47;;;;;;;6.99;79.68;100765.84;5036512;28;20217;-71
2023/10/15 02:28:16;;;;;;;5.60;1.30;;;;;;;7.00;79.37;100766.66;5036404;28;20265;-70
2023/10/15 02:30:46;;;;;;;7.93;1.30;;;;;;;6.97;79.04;100761.97;5034923;28;20938;-72
2023/10/15 02:33:16;;;;;;;7.77;1.10;;;;;;;6.96;79.16;100763.06;5034572;28;20223;-71
2023/10/15 02:35:45;;;;;;;9.20;1.60;;;;;;;6.96;78.53;100770.94;5035718;28;20199;-72
2023/10/15 02:38:13;;;;;;;5.73;1.40;;;;;;;6.95;78.90;100774.63;5037619;28;20236;-71
2023/10/15 02:41:03;;;;;;;8.03;1.47;;;;;;;6.94;80.10;100778.34;5037428;28;20580;-72
2023/10/15 02:43:27;;;;;;;4.93;0.97;;;;;;;6.92;80.36;100775.22;5063751;28;20221;-71
2023/10/15 02:45:54;;;;;;;3.40;1.10;;;;;;;6.90;79.09;100767.66;5036208;28;20261;-71
2023/10/15 02:48:22;;;;;;;6.27;1.13;;;;;;;6.90;79.88;100766.88;5036680;28;20216;-71
2023/10/15 02:50:58;;;;;;;4.20;1.20;;;;;;;6.88;79.50;100774.28;5036351;28;20292;-73
2023/10/15 02:53:25;;;;;;;5.20;1.50;;;;;;;6.86;80.30;100771.16;5035299;23;20474;-70
2023/10/15 02:55:52;;;;;;;5.60;1.60;;;;;;;6.82;78.90;100770.97;5029119;28;20216;-71
2023/10/15 02:58:22;;;;;;;8.63;1.63;;;;;;;6.84;80.62;100770.69;5021264;28;20265;-71
2023/10/15 03:00:51;;;;;;;5.83;1.10;;;;;;;6.81;80.43;100779.91;5016588;28;20776;-70
2023/10/15 03:03:23;;;;;;;8.73;1.37;;;;;;;6.80;79.91;100772.34;5002237;28;21430;-70
2023/10/15 03:05:49;;;;;;;4.77;1.13;;;;;;;6.80;80.26;100769.72;4992384;28;20212;-71
2023/10/15 03:08:20;;;;;;;6.80;1.60;;;;;;;6.80;79.29;100780.22;5000915;28;20219;-71
2023/10/15 03:10:48;;;;;;;4.87;1.30;;;;;;;6.79;80.42;100776.78;4999971;28;20218;-71
2023/10/15 03:13:15;;;;;;;11.63;1.70;;;;;;;6.79;80.34;100782.03;4978772;28;20228;-71
2023/10/15 03:15:48;;;;;;;7.27;1.43;;;;;;;6.79;80.05;100789.16;4978615;28;20208;-71
2023/10/15 03:18:22;;;;;;;8.50;1.10;;;;;;;6.78;79.69;100779.72;4998767;28;20227;-71
2023/10/15 03:20:49;;;;;;;6.50;1.50;;;;;;;6.78;80.18;100791.00;5000300;28;20256;-70
2023/10/15 03:23:17;;;;;;;7.17;1.67;;;;;;;6.76;80.46;100787.09;5010076;28;20708;-70
2023/10/15 03:25:43;;;;;;;3.30;1.10;;;;;;;6.77;80.08;100791.28;4996004;28;20627;-70
2023/10/15 03:28:11;;;;;;;7.40;1.47;;;;;;;6.77;81.21;100784.19;4996933;28;20213;-71
2023/10/15 03:30:44;;;;;;;3.67;1.27;;;;;;;6.75;80.77;100785.56;4994720;28;20200;-70
2023/10/15 03:33:11;;;;;;;5.60;1.20;;;;;;;6.76;80.87;100787.09;4997460;28;20232;-70
2023/10/15 03:35:39;;;;;;;10.03;1.97;;;;;;;6.76;80.84;100800.22;4993072;28;20211;-70
2023/10/15 03:38:14;;;;;;;9.93;1.30;;;;;;;6.77;80.86;100799.16;4998207;28;20774;-71
2023/10/15 03:40:46;;;;;;;4.47;1.27;;;;;;;6.78;81.62;100798.09;5014468;28;20200;-71
2023/10/15 03:43:16;;;;;;;11.93;1.57;;;;;;;6.80;81.12;100804.63;4993528;28;20224;-70
2023/10/15 03:45:51;;;;;;;3.77;1.50;;;;;;;6.81;81.33;100800.13;4995852;28;20679;-70
2023/10/15 03:48:18;;;;;;;7.30;1.63;;;;;;;6.82;81.43;100805.09;4999629;28;20234;-71
2023/10/15 03:50:54;;;;;;;4.80;1.30;;;;;;;6.85;81.32;100801.09;4995752;28;20203;-71
2023/10/15 03:53:21;;;;;;;3.70;1.20;;;;;;;6.87;80.27;100793.69;4995399;28;20228;-71
2023/10/15 03:55:49;;;;;;;9.23;1.57;;;;;;;6.87;80.41;100802.34;4997971;28;20251;-71
2023/10/15 03:58:16;;;;;;;2.90;1.10;;;;;;;6.87;80.30;100797.09;4997864;28;20255;-73
2023/10/15 04:00:47;;;;;;;10.50;1.73;;;;;;;6.87;80.06;100786.59;4994603;28;20298;-70
2023/10/15 04:03:18;;;;;;;6.83;1.77;;;;;;;6.89;80.89;100792.31;4999746;28;20228;-71
2023/10/15 04:05:53;;;;;;;7.40;2.07;;;;;;;6.91;79.72;100799.91;4997167;28;20212;-71
2023/10/15 04:08:20;;;;;;;6.43;1.30;;;;;;;6.92;80.48;100796.22;4998955;28;20208;-71
2023/10/15 04:10:56;;;;;;;10.00;1.50;;;;;;;6.90;80.79;100799.16;4996941;28;20212;-70
2023/10/15 04:13:22;;;;;;;7.63;1.43;;;;;;;6.92;80.07;100806.72;4996922;28;20776;-70
2023/10/15 04:15:49;;;;;;;8.20;1.53;;;;;;;6.90;80.92;100799.16;4995550;28;20208;-70
2023/10/15 04:18:16;;;;;;;3.10;1.47;;;;;;;6.91;81.16;100803.31;4996866;28;20894;-71
2023/10/15 04:20:42;;;;;;;5.67;1.43;;;;;;;6.89;81.04;100786.31;4998793;28;20296;-70
2023/10/15 04:23:12;;;;;;;3.33;1.00;;;;;;;6.88;81.07;100787.41;4995192;28;20249;-71
2023/10/15 04:25:39;;;;;;;4.27;1.30;;;;;;;6.87;81.30;100785.81;4992317;28;20224;-71
2023/10/15 04:28:12;;;;;;;7.57;1.53;;;;;;;6.87;80.84;100789.22;5000130;28;20323;-70
2023/10/15 04:30:39;;;;;;;8.77;1.87;;;;;;;6.88;81.71;100784.78;4998158;28;20209;-70
2023/10/15 04:33:10;;;;;;;6.27;1.67;;;;;;;6.87;81.47;100783.19;4994012;28;20645;-70
2023/10/15 04:35:37;;;;;;;2.40;1.03;;;;;;;6.87;80.99;100786.59;4994834;28;20217;-70
2023/10/15 04:38:07;;;;;;;6.60;1.77;;;;;;;6.88;81.13;100787.41;5001043;28;20219;-71
2023/10/15 04:40:59;;;;;;;11.57;2.30;;;;;;;6.86;80.41;100787.69;5000773;28;20658;-70
2023/10/15 04:43:25;;;;;;;5.27;1.53;;;;;;;6.85;80.51;100794.00;4999519;28;20236;-70
2023/10/15 04:45:54;;;;;;;9.47;1.50;;;;;;;6.83;80.82;100790.88;4998724;28;20664;-71
2023/10/15 04:48:26;;;;;;;5.87;1.83;;;;;;;6.84;80.72;100787.19;5002982;28;20230;-71
2023/10/15 04:50:53;;;;;;;8.77;1.33;;;;;;;6.82;81.07;100786.72;5006018;28;20200;-71
2023/10/15 04:53:24;;;;;;;3.63;1.03;;;;;;;6.82;80.97;100783.31;5001063;28;20231;-70
2023/10/15 04:55:53;;;;;;;7.43;1.70;;;;;;;6.80;81.30;100785.47;5001791;28;20289;-70
2023/10/15 04:58:20;;;;;;;7.83;1.80;;;;;;;6.80;81.12;100788.09;4997687;28;20228;-71
2023/10/15 05:00:48;;;;;;;5.00;1.37;;;;;;;6.78;81.68;100782.34;5017927;28;20223;-70
2023/10/15 05:03:15;;;;;;;6.00;1.20;;;;;;;6.77;81.50;100783.41;4996847;28;20231;-70
2023/10/15 05:05:42;;;;;;;7.80;1.50;;;;;;;6.74;81.22;100786.63;5003719;28;20286;-71
2023/10/15 05:08:10;;;;;;;6.23;1.43;;;;;;;6.73;81.00;100790.34;5002600;28;21067;-71
2023/10/15 05:10:38;;;;;;;7.47;2.13;;;;;;;6.71;81.25;100787.22;4983519;28;20212;-70
2023/10/15 05:13:06;;;;;;;5.63;1.43;;;;;;;6.70;82.10;100785.66;5004578;28;20228;-71
2023/10/15 05:15:32;;;;;;;7.00;1.33;;;;;;;6.67;81.92;100794.91;5002355;28;20204;-71
2023/10/15 05:17:59;;;;;;;3.83;1.60;;;;;;;6.64;82.51;100792.84;5002590;28;20574;-70
2023/10/15 05:20:25;;;;;;;9.73;1.73;;;;;;;6.63;82.85;100785.31;5000659;28;20623;-71
2023/10/15 05:22:51;;;;;;;4.20;1.10;;;;;;;6.59;82.25;100797.44;5000292;28;20235;-70
2023/10/15 05:25:18;;;;;;;7.53;1.30;;;;;;;6.57;82.92;100797.72;5002317;28;20613;-70
2023/10/15 05:27:44;;;;;;;12.60;1.60;;;;;;;6.56;82.52;100800.63;5000781;28;20262;-71
2023/10/15 05:30:15;;;;;;;5.97;1.27;;;;;;;6.53;82.83;100796.75;5002309;28;20204;-70
2023/10/15 05:32:42;;;;;;;5.37;1.47;;;;;;;6.51;83.37;100801.53;5002047;28;20227;-70
2023/10/15 05:35:10;;;;;;;6.50;1.30;;;;;;;6.48;83.00;100814.47;5003357;28;20906;-71
2023/10/15 05:37:37;;;;;;;4.87;1.43;;;;;;;6.46;83.39;100809.50;5001761;28;20861;-70
2023/10/15 05:40:05;;;;;;;4.87;1.17;;;;;;;6.45;82.97;100815.03;5006962;28;20297;-70
2023/10/15 05:42:31;;;;;;;5.43;1.37;;;;;;;6.44;83.71;100811.66;5002491;28;20228;-71
2023/10/15 05:44:58;;;;;;;8.33;1.60;;;;;;;6.42;83.63;100811.13;4981357;28;20227;-71
2023/10/15 05:47:25;;;;;;;10.40;1.40;;;;;;;6.42;83.54;100811.13;4998595;28;20203;-70
2023/10/15 05:49:53;;;;;;;11.03;1.87;;;;;;;6.41;83.34;100811.44;5001074;28;20227;-71
2023/10/15 05:52:20;;;;;;;6.57;1.57;;;;;;;6.41;83.43;100814.06;5000949;28;20243;-72
2023/10/15 05:54:47;;;;;;;3.53;1.10;;;;;;;6.41;83.88;100816.66;5004021;28;20204;-72
2023/10/15 05:57:13;;;;;;;2.53;1.13;;;;;;;6.41;83.88;100821.91;5001093;28;20200;-73
2023/10/15 05:59:40;;;;;;;5.20;1.40;;;;;;;6.41;84.22;100816.66;5002118;28;20292;-72
2023/10/15 06:02:06;;;;;;;6.23;1.40;;;;;;;6.42;84.93;100820.88;4999091;28;20224;-73
2023/10/15 06:04:36;;;;;;;10.40;2.03;;;;;;;6.42;84.54;100819.00;5002546;28;20359;-73
2023/10/15 06:07:05;;;;;;;5.73;1.27;;;;;;;6.43;84.14;100812.69;5001749;28;20283;-73
2023/10/15 06:09:31;;;;;;;12.07;1.40;;;;;;;6.46;84.39;100819.19;5000175;28;20286;-72
2023/10/15 06:11:58;;;;;;;9.80;1.40;;;;;;;6.48;83.91;100817.06;5001139;28;20229;-73
2023/10/15 06:14:27;;;;;;;7.70;1.50;;;;;;;6.51;84.15;100829.59;5003731;28;20204;-70
2023/10/15 06:16:54;;;;;;;9.40;1.57;;;;;;;6.54;83.58;100831.66;4998980;28;20827;-70
2023/10/15 06:19:20;;;;;;;8.83;1.47;;;;;;;6.56;83.81;100842.63;5001291;28;20231;-70
2023/10/15 06:21:48;;;;;;;8.50;1.40;;;;;;;6.61;83.75;100830.19;4981553;28;20613;-70
2023/10/15 06:24:14;;;;;;;5.80;1.77;;;;;;;6.65;83.67;100840.88;5002432;28;20713;-70
2023/10/15 06:26:41;;;;;;;5.87;1.50;;;;;;;6.69;83.65;100839.22;4998133;28;20754;-71
2023/10/15 06:29:09;;;;;;;2.87;1.13;;;;;;;6.72;83.41;100843.88;4999991;28;20209;-70
2023/10/15 06:31:36;;;;;;;5.13;2.13;;;;;;;6.75;82.95;100859.81;4980206;28;20205;-70
2023/10/15 06:34:02;;;;;;;10.90;1.70;;;;;;;6.80;83.76;100864.97;4999148;28;20577;-71
2023/10/15 06:36:28;;;;;;;8.60;2.40;;;;;;;6.84;83.22;100863.31;5003354;28;20212;-70
2023/10/15 06:38:57;;;;;;;5.47;2.77;;;;;;;6.88;82.71;100860.88;5001325;28;20216;-70
2023/10/15 06:41:24;;;;;;;10.43;2.20;;;;;;;6.93;82.76;100868.63;4998847;28;20296;-70
2023/10/15 06:43:51;;;;;;;9.00;2.10;;;;;;;6.96;83.28;100860.19;5003293;28;20788;-70
2023/10/15 06:46:17;;;;;;;7.03;2.47;;;;;;;7.02;82.20;100862.41;5003864;28;20213;-71
2023/10/15 06:48:44;;;;;;;9.60;3.00;;;;;;;7.06;82.97;100860.75;5002065;28;20203;-71
2023/10/15 06:51:12;;;;;;;11.13;1.87;;;;;;;7.14;81.52;100865.31;5003006;28;20200;-71
2023/10/15 06:53:39;;;;;;;4.23;1.43;;;;;;;7.19;82.42;100865.19;5005363;28;20239;-71
2023/10/15 06:56:06;;;;;;;4.63;1.70;;;;;;;7.26;81.89;100865.56;5004850;28;20700;-71
2023/10/15 06:58:33;;;;;;;10.33;1.80;;;;;;;7.33;81.53;100862.53;4997609;28;20239;-71
2023/10/15 07:01:00;;;;;;;8.70;1.90;;;;;;;7.37;81.85;100866.13;5003162;28;20235;-71
2023/10/15 07:03:27;;;;;;;5.90;1.50;;;;;;;7.44;80.78;100864.63;4999730;28;20714;-70
2023/10/15 07:05:54;;;;;;;13.73;2.80;;;;;;;7.51;81.23;100870.25;5004236;28;20202;-71
2023/10/15 07:08:20;;;;;;;5.43;1.60;;;;;;;7.60;79.40;100875.56;5000113;28;20243;-70
2023/10/15 07:10:48;;;;;;;7.90;1.60;;;;;;;7.64;80.56;100874.69;5000110;28;20476;-70
2023/10/15 07:13:17;;;;;;;10.67;2.23;;;;;;;7.69;79.93;100877.19;5002364;28;20594;-70
2023/10/15 07:15:45;;;;;;;4.80;1.30;;;;;;;7.77;80.20;100873.84;4998842;28;20220;-70
2023/10/15 07:18:12;;;;;;;2.97;1.17;;;;;;;7.84;79.79;100876.84;4997526;28;20213;-71
2023/10/15 07:20:39;;;;;;;6.27;1.20;;;;;;;7.91;78.63;100879.03;4995846;28;20231;-70
2023/10/15 07:23:05;;;;;;;7.40;1.57;;;;;;;7.97;78.84;100872.59;4996177;28;20216;-71
2023/10/15 07:25:33;;;;;;;6.93;1.53;;;;;;;8.03;79.20;100884.53;4976508;28;20208;-71
2023/10/15 07:28:01;;;;;;;4.93;1.53;;;;;;;8.07;79.46;100880.25;4994680;28;20292;-70
2023/10/15 07:30:30;;;;;;;6.93;1.80;;;;;;;8.14;78.63;100893.72;4995004;28;20208;-70
2023/10/15 07:32:58;;;;;;;2.93;1.30;;;;;;;8.20;78.38;100895.97;4997999;28;20258;-70
2023/10/15 07:35:26;;;;;;;8.17;2.00;;;;;;;8.26;77.71;100886.88;4996298;28;20208;-70
2023/10/15 07:37:53;;;;;;;12.70;1.50;;;;;;;8.32;77.55;100884.88;4995606;28;20672;-71
2023/10/15 07:40:22;;;;;;;4.83;1.83;;;;;;;8.37;76.82;100890.78;5003802;28;20224;-70
2023/10/15 07:42:50;;;;;;;4.93;1.30;;;;;;;8.43;77.00;100884.31;5000532;28;20227;-71
2023/10/15 07:45:17;;;;;;;9.20;2.03;;;;;;;8.50;76.92;100881.25;4999885;28;20205;-70
2023/10/15 07:47:46;;;;;;;7.00;2.23;;;;;;;8.57;77.07;100889.47;5001141;28;20200;-70
2023/10/15 07:50:16;;;;;;;6.80;1.60;;;;;;;8.62;77.26;100886.69;5000213;28;20567;-73
2023/10/15 07:52:43;;;;;;;7.77;1.80;;;;;;;8.69;76.83;100889.69;5001426;28;20594;-71
2023/10/15 07:55:11;;;;;;;6.00;1.90;;;;;;;8.76;75.58;100888.13;4997131;28;20525;-71
2023/10/15 07:57:38;;;;;;;7.03;1.60;;;;;;;8.84;74.95;100879.50;5014768;28;20303;-71
2023/10/15 08:00:07;;;;;;;6.73;1.40;;;;;;;8.92;76.52;100884.03;5002604;28;20222;-71
2023/10/15 08:02:39;;;;;;;3.80;1.40;;;;;;;8.99;75.56;100883.53;4997038;28;20896;-71
2023/10/15 08:05:08;;;;;;;9.33;2.37;;;;;;;9.08;75.43;100885.13;5002046;28;20757;-71
2023/10/15 08:07:36;;;;;;;10.30;2.23;;;;;;;9.18;75.55;100876.94;4998970;28;20200;-71
2023/10/15 08:10:03;;;;;;;8.37;2.00;;;;;;;9.28;74.49;100881.91;5000216;28;20205;-71
2023/10/15 08:12:30;;;;;;;10.17;2.17;;;;;;;9.36;75.24;100881.13;4996921;28;20235;-71
2023/10/15 08:14:57;;;;;;;6.27;2.37;;;;;;;9.53;74.51;100883.00;4994196;28;20211;-71
2023/10/15 08:17:24;;;;;;;3.20;1.63;;;;;;;9.65;72.83;100886.56;4999780;28;20329;-71
2023/10/15 08:19:51;;;;;;;6.37;2.57;;;;;;;9.78;72.64;100890.13;5000073;28;20234;-71
2023/10/15 08:22:18;;;;;;;12.17;6.57;;;;;;;9.94;73.99;100891.94;5001075;28;20234;-71
2023/10/15 08:24:45;;;;;;;15.70;6.50;;;;;;;10.05;70.91;100902.97;5002742;28;20208;-70
2023/10/15 08:27:13;;;;;;;10.63;2.63;;;;;;;10.16;71.63;100902.34;5001438;28;20295;-71
2023/10/15 08:29:40;;;;;;;11.87;2.03;;;;;;;10.24;69.49;100903.41;4997873;28;20215;-71
2023/10/15 08:32:06;;;;;;;6.07;2.03;;;;;;;10.30;69.19;100907.44;4999961;28;20220;-71
2023/10/15 08:34:32;;;;;;;7.17;1.73;;;;;;;10.31;68.13;100908.97;4995190;28;20650;-71
2023/10/15 08:36:59;;;;;;;2.90;1.37;;;;;;;10.33;68.58;100897.00;5001054;28;20212;-71
2023/10/15 08:39:27;;;;;;;6.27;2.20;;;;;;;10.39;68.71;100913.44;4999548;28;20213;-71
2023/10/15 08:41:55;;;;;;;8.43;2.00;;;;;;;10.45;68.29;100904.28;4998318;28;21933;-71
2023/10/15 08:44:22;;;;;;;4.90;1.40;;;;;;;10.51;67.04;100903.00;5009398;28;20602;-71
2023/10/15 08:46:51;;;;;;;5.43;2.87;;;;;;;10.55;67.07;100906.53;5003027;28;20590;-71
2023/10/15 08:49:19;;;;;;;4.23;2.00;;;;;;;10.63;68.70;100901.25;5015396;28;20300;-71
2023/10/15 08:51:47;;;;;;;6.27;1.33;;;;;;;10.60;65.12;100901.88;5004228;28;20193;-71
2023/10/15 08:54:15;;;;;;;6.17;1.70;;;;;;;10.59;64.72;100902.97;5067241;22;20239;-71
2023/10/15 08:56:43;;;;;;;6.03;1.33;;;;;;;10.58;65.78;100913.84;5037916;28;20216;-70
2023/10/15 08:59:11;;;;;;;3.13;1.20;;;;;;;10.53;66.33;100906.88;5034334;28;20685;-70
2023/10/15 09:01:40;;;;;;;3.73;1.47;;;;;;;10.56;71.31;100908.88;5035983;28;20217;-69
2023/10/15 09:04:09;;;;;;;3.57;1.10;;;;;;;10.45;64.71;100912.97;5032445;28;20232;-70
2023/10/15 09:06:36;;;;;;;3.63;0.93;;;;;;;10.39;65.73;100916.88;5032581;28;20312;-70
2023/10/15 09:09:03;;;;;;;4.10;1.53;;;;;;;10.36;65.26;100914.09;5033193;28;20238;-70
2023/10/15 09:11:29;;;;;;;5.67;1.23;;;;;;;10.38;65.03;100922.44;5035085;28;20204;-70
2023/10/15 09:13:58;;;;;;;5.50;1.53;;;;;;;10.45;66.38;100926.16;5030006;28;20227;-70
2023/10/15 09:16:26;;;;;;;4.47;1.27;;;;;;;10.47;66.08;100920.56;5037845;28;20211;-71
2023/10/15 09:18:52;;;;;;;11.47;2.00;;;;;;;10.51;66.25;100921.50;5028415;28;20314;-71
2023/10/15 09:21:24;;;;;;;2.03;1.30;;;;;;;10.57;65.59;100925.50;5033049;28;20223;-70
2023/10/15 09:23:51;;;;;;;2.17;1.10;;;;;;;10.60;67.17;100928.28;5034818;28;20249;-70
2023/10/15 09:26:18;;;;;;;5.60;1.13;;;;;;;10.62;65.98;100926.09;5038784;28;20203;-70
2023/10/15 09:28:44;;;;;;;7.80;1.53;;;;;;;10.61;65.44;100932.47;5034699;28;20204;-70
2023/10/15 09:31:12;;;;;;;2.77;1.43;;;;;;;10.58;65.32;100932.31;5036125;28;20223;-70
2023/10/15 09:33:40;;;;;;;2.43;1.20;;;;;;;10.60;66.31;100923.00;5033478;28;20709;-71
2023/10/15 09:36:07;;;;;;;4.73;1.57;;;;;;;10.65;66.36;100927.31;5031482;28;20279;-71
2023/10/15 09:38:34;;;;;;;2.90;1.33;;;;;;;10.68;66.19;100924.06;5034975;28;20707;-71
2023/10/15 09:41:02;;;;;;;4.50;1.27;;;;;;;10.76;65.83;100931.19;5030472;28;20224;-71
2023/10/15 09:43:31;;;;;;;4.23;1.30;;;;;;;10.82;67.18;100935.94;5037404;28;20220;-71
2023/10/15 09:45:58;;;;;;;4.10;1.40;;;;;;;10.90;67.17;100940.44;5031350;28;20208;-71
2023/10/15 09:48:27;;;;;;;4.43;1.70;;;;;;;10.93;64.62;100926.56;5031621;28;20207;-71
2023/10/15 09:50:57;;;;;;;11.73;5.90;;;;;;;10.99;64.65;100935.88;5032194;28;20690;-70
2023/10/15 09:53:24;;;;;;;6.13;1.73;;;;;;;11.02;66.56;100927.31;5032610;28;20237;-70
2023/10/15 09:55:53;;;;;;;5.03;1.30;;;;;;;11.05;63.35;100941.75;5030042;28;20219;-71
2023/10/15 09:58:19;;;;;;;3.77;1.70;;;;;;;11.15;65.38;100933.44;5035434;28;20594;-70
2023/10/15 10:00:59;;;;;;;2.57;1.30;;;;;;;11.22;64.82;100939.00;5031576;28;20232;-70
2023/10/15 10:03:49;;;;;;;3.93;1.43;;;;;;;11.28;66.24;100938.50;5029000;28;20317;-71
2023/10/15 10:06:30;;;;;;;3.43;1.20;;;;;;;11.39;66.48;100936.25;5034908;28;20222;-71
2023/10/15 10:09:21;;;;;;;3.73;1.50;;;;;;;11.47;64.71;100946.00;5027210;28;20215;-71
2023/10/15 10:11:57;;;;;;;4.50;1.47;;;;;;;11.55;64.88;100947.81;5028633;28;20217;-70
2023/10/15 10:14:49;;;;;;;2.97;1.00;;;;;;;11.57;63.42;100950.91;5030236;28;20241;-71
2023/10/15 10:17:18;;;;;;;3.43;1.20;;;;;;;11.57;62.85;100948.25;5034167;28;20205;-71
2023/10/15 10:19:51;;;;;;;7.83;1.30;;;;;;;11.66;65.76;100949.00;5031597;28;20223;-71
2023/10/15 10:22:24;;;;;;;6.90;1.50;;;;;;;11.71;62.39;100948.81;5034052;28;20214;-71
2023/10/15 10:24:51;;;;;;;5.77;1.60;;;;;;;11.86;62.27;100942.94;5031857;28;20199;-71
2023/10/15 10:27:17;;;;;;;2.43;1.40;;;;;;;11.87;60.84;100939.19;5032789;28;20279;-70
2023/10/15 10:29:44;;;;;;;4.17;1.27;;;;;;;11.90;62.76;100934.00;5033428;28;20207;-71
2023/10/15 10:32:13;;;;;;;3.57;1.67;;;;;;;11.90;64.84;100935.91;5031178;28;20747;-71
2023/10/15 10:34:40;;;;;;;3.80;1.77;;;;;;;11.93;62.06;100924.66;5033907;28;20218;-70
2023/10/15 10:37:20;;;;;;;6.47;1.30;;;;;;;11.98;62.04;100921.78;5030146;28;20195;-71
2023/10/15 10:39:48;;;;;;;3.73;1.40;;;;;;;11.96;61.22;100924.75;5034702;28;20211;-71
2023/10/15 10:42:22;;;;;;;9.80;2.00;;;;;;;11.87;60.52;100924.09;5036382;28;20226;-70
2023/10/15 10:44:48;;;;;;;51.17;4.53;;;;;;;11.92;67.46;100920.47;5031822;28;20226;-70
2023/10/15 10:47:21;;;;;;;4.47;1.27;;;;;;;11.89;60.99;100924.53;5034424;28;20217;-71
2023/10/15 10:49:55;;;;;;;2.63;0.90;;;;;;;11.83;60.62;100925.03;5034376;28;20489;-70
2023/10/15 10:52:30;;;;;;;3.23;0.90;;;;;;;11.83;59.40;100912.59;5029382;28;20207;-71
2023/10/15 10:55:31;;;;;;;1.77;1.00;;;;;;;11.88;61.04;100916.91;5025306;28;20251;-71
2023/10/15 10:58:00;;;;;;;3.97;1.17;;;;;;;12.02;60.20;100918.19;5027378;28;20237;-71
2023/10/15 11:00:30;;;;;;;9.33;3.40;;;;;;;12.07;59.00;100925.13;5033124;28;20226;-71
2023/10/15 11:02:58;;;;;;;4.80;1.20;;;;;;;12.01;59.57;100916.63;5028609;28;20230;-71
2023/10/15 11:05:25;;;;;;;5.00;2.00;;;;;;;11.94;61.86;100915.59;5030703;28;20202;-70
2023/10/15 11:07:53;;;;;;;3.87;2.03;;;;;;;11.70;61.53;100936.69;5031777;28;20527;-70
2023/10/15 11:10:19;;;;;;;1.80;0.80;;;;;;;11.46;62.35;100932.00;5030492;28;20210;-71
2023/10/15 11:12:46;;;;;;;3.40;1.53;;;;;;;11.42;63.40;100933.75;5032084;28;20284;-70
2023/10/15 11:15:14;;;;;;;3.83;2.40;;;;;;;11.26;64.04;100929.34;5028083;28;20210;-70
2023/10/15 11:17:54;;;;;;;4.80;2.40;;;;;;;11.19;63.64;100923.78;5031155;28;21359;-70
2023/10/15 11:20:21;;;;;;;2.53;1.47;;;;;;;11.03;63.09;100914.88;5032348;28;20222;-70
2023/10/15 11:22:51;;;;;;;4.23;2.20;;;;;;;11.04;64.88;100919.84;5031991;28;20533;-71
2023/10/15 11:25:19;;;;;;;4.57;2.03;;;;;;;10.95;62.59;100916.47;5033270;28;20706;-71
2023/10/15 11:27:45;;;;;;;2.33;1.27;;;;;;;10.95;65.51;100903.25;5027084;28;20216;-70
2023/10/15 11:30:14;;;;;;;4.53;1.10;;;;;;;11.02;63.92;100903.53;5032346;28;20407;-71
2023/10/15 11:32:40;;;;;;;3.60;2.10;;;;;;;11.10;60.84;100905.34;5027448;28;20239;-70
2023/10/15 11:35:08;;;;;;;4.73;1.10;;;;;;;11.15;60.61;100899.09;5025348;28;20239;-71
2023/10/15 11:37:35;;;;;;;2.93;1.00;;;;;;;11.15;59.75;100907.81;5030225;28;20234;-71